sensor_id;sensor_type;location;lat;lon;timestamp;P1;durP1;ratioP1;P2;durP2;ratioP2
13477;SDS011;12598;62.382;17.344;2024-01-06T00:00:06;1.63;;;1.42;;
13477;SDS011;12598;62.382;17.344;2024-01-06T00:01:15;1.63;;;1.45;;
13477;SDS011;12598;62.382;17.344;2024-01-06T00:02:17;2.03;;;1.85;;
13477;SDS011;12598;62.382;17.344;2024-01-06T00:03:19;1.52;;;1.42;;
13477;SDS011;12598;62.382;17.344;2024-01-06T00:04:21;1.40;;;1.30;;
13477;SDS011;12598;62.382;17.344;2024-01-06T00:05:22;2.30;;;1.60;;
13477;SDS011;12598;62.382;17.344;2024-01-06T00:06:24;1.92;;;1.73;;
13477;SDS011;12598;62.382;17.344;2024-01-06T00:07:26;1.88;;;1.63;;
13477;SDS011;12598;62.382;17.344;2024-01-06T00:08:28;2.17;;;1.90;;
13477;SDS011;12598;62.382;17.344;2024-01-06T00:09:30;1.70;;;1.60;;
13477;SDS011;12598;62.382;17.344;2024-01-06T00:10:32;1.60;;;1.50;;
13477;SDS011;12598;62.382;17.344;2024-01-06T00:11:34;1.70;;;1.60;;
13477;SDS011;12598;62.382;17.344;2024-01-06T00:12:35;1.67;;;1.50;;
13477;SDS011;12598;62.382;17.344;2024-01-06T00:13:38;2.40;;;1.90;;
13477;SDS011;12598;62.382;17.344;2024-01-06T00:14:39;1.30;;;1.20;;
13477;SDS011;12598;62.382;17.344;2024-01-06T00:15:45;1.30;;;1.20;;
13477;SDS011;12598;62.382;17.344;2024-01-06T00:16:47;1.90;;;1.60;;
13477;SDS011;12598;62.382;17.344;2024-01-06T00:17:48;1.50;;;1.20;;
13477;SDS011;12598;62.382;17.344;2024-01-06T00:18:50;1.45;;;1.35;;
13477;SDS011;12598;62.382;17.344;2024-01-06T00:19:52;1.40;;;1.23;;
13477;SDS011;12598;62.382;17.344;2024-01-06T00:20:55;1.65;;;1.42;;
13477;SDS011;12598;62.382;17.344;2024-01-06T00:21:57;1.80;;;1.60;;
13477;SDS011;12598;62.382;17.344;2024-01-06T00:22:59;1.65;;;1.42;;
13477;SDS011;12598;62.382;17.344;2024-01-06T00:24:01;1.45;;;1.30;;
13477;SDS011;12598;62.382;17.344;2024-01-06T00:25:03;1.50;;;1.40;;
13477;SDS011;12598;62.382;17.344;2024-01-06T00:26:05;1.77;;;1.60;;
13477;SDS011;12598;62.382;17.344;2024-01-06T00:27:06;1.40;;;1.30;;
13477;SDS011;12598;62.382;17.344;2024-01-06T00:28:08;1.58;;;1.48;;
13477;SDS011;12598;62.382;17.344;2024-01-06T00:29:10;1.73;;;1.63;;
13477;SDS011;12598;62.382;17.344;2024-01-06T00:30:12;1.73;;;1.48;;
13477;SDS011;12598;62.382;17.344;2024-01-06T00:31:14;1.63;;;1.40;;
13477;SDS011;12598;62.382;17.344;2024-01-06T00:32:20;1.33;;;1.17;;
13477;SDS011;12598;62.382;17.344;2024-01-06T00:33:21;2.17;;;1.52;;
13477;SDS011;12598;62.382;17.344;2024-01-06T00:34:23;2.15;;;1.35;;
13477;SDS011;12598;62.382;17.344;2024-01-06T00:35:25;2.17;;;1.50;;
13477;SDS011;12598;62.382;17.344;2024-01-06T00:36:27;1.15;;;1.00;;
13477;SDS011;12598;62.382;17.344;2024-01-06T00:37:29;1.50;;;1.40;;
13477;SDS011;12598;62.382;17.344;2024-01-06T00:38:31;1.77;;;1.20;;
13477;SDS011;12598;62.382;17.344;2024-01-06T00:39:33;1.20;;;1.10;;
13477;SDS011;12598;62.382;17.344;2024-01-06T00:40:34;1.33;;;1.00;;
13477;SDS011;12598;62.382;17.344;2024-01-06T00:41:36;1.85;;;1.70;;
13477;SDS011;12598;62.382;17.344;2024-01-06T00:42:38;1.48;;;1.20;;
13477;SDS011;12598;62.382;17.344;2024-01-06T00:43:40;1.45;;;1.23;;
13477;SDS011;12598;62.382;17.344;2024-01-06T00:44:42;1.52;;;1.17;;
13477;SDS011;12598;62.382;17.344;2024-01-06T00:45:44;1.95;;;1.38;;
13477;SDS011;12598;62.382;17.344;2024-01-06T00:46:45;1.33;;;1.23;;
13477;SDS011;12598;62.382;17.344;2024-01-06T00:47:47;1.70;;;1.25;;
13477;SDS011;12598;62.382;17.344;2024-01-06T00:48:49;1.55;;;1.35;;
13477;SDS011;12598;62.382;17.344;2024-01-06T00:49:51;1.23;;;1.13;;
13477;SDS011;12598;62.382;17.344;2024-01-06T00:50:53;1.20;;;1.02;;
13477;SDS011;12598;62.382;17.344;2024-01-06T00:51:55;1.38;;;1.27;;
13477;SDS011;12598;62.382;17.344;2024-01-06T00:52:57;1.90;;;1.20;;
13477;SDS011;12598;62.382;17.344;2024-01-06T00:53:59;1.25;;;1.10;;
13477;SDS011;12598;62.382;17.344;2024-01-06T00:55:00;0.95;;;0.82;;
13477;SDS011;12598;62.382;17.344;2024-01-06T00:56:03;1.25;;;1.15;;
13477;SDS011;12598;62.382;17.344;2024-01-06T00:57:05;1.10;;;1.00;;
13477;SDS011;12598;62.382;17.344;2024-01-06T00:58:06;1.30;;;1.20;;
13477;SDS011;12598;62.382;17.344;2024-01-06T00:59:10;1.27;;;1.05;;
13477;SDS011;12598;62.382;17.344;2024-01-06T01:00:12;1.30;;;1.20;;
13477;SDS011;12598;62.382;17.344;2024-01-06T01:01:14;1.40;;;1.30;;
13477;SDS011;12598;62.382;17.344;2024-01-06T01:02:16;1.10;;;1.00;;
13477;SDS011;12598;62.382;17.344;2024-01-06T01:03:18;1.55;;;1.30;;
13477;SDS011;12598;62.382;17.344;2024-01-06T01:04:20;1.75;;;1.10;;
13477;SDS011;12598;62.382;17.344;2024-01-06T01:05:22;0.82;;;0.82;;
13477;SDS011;12598;62.382;17.344;2024-01-06T01:06:24;1.30;;;1.20;;
13477;SDS011;12598;62.382;17.344;2024-01-06T01:07:25;1.38;;;1.00;;
13477;SDS011;12598;62.382;17.344;2024-01-06T01:08:28;1.00;;;0.90;;
13477;SDS011;12598;62.382;17.344;2024-01-06T01:09:30;1.33;;;1.20;;
13477;SDS011;12598;62.382;17.344;2024-01-06T01:10:32;1.70;;;1.60;;
13477;SDS011;12598;62.382;17.344;2024-01-06T01:11:34;1.05;;;0.95;;
13477;SDS011;12598;62.382;17.344;2024-01-06T01:12:36;1.20;;;1.10;;
13477;SDS011;12598;62.382;17.344;2024-01-06T01:13:38;1.08;;;0.90;;
13477;SDS011;12598;62.382;17.344;2024-01-06T01:14:39;1.40;;;1.30;;
13477;SDS011;12598;62.382;17.344;2024-01-06T01:15:41;1.10;;;1.00;;
13477;SDS011;12598;62.382;17.344;2024-01-06T01:16:43;1.10;;;0.90;;
13477;SDS011;12598;62.382;17.344;2024-01-06T01:17:45;1.20;;;1.10;;
13477;SDS011;12598;62.382;17.344;2024-01-06T01:18:47;1.27;;;1.00;;
13477;SDS011;12598;62.382;17.344;2024-01-06T01:19:49;0.80;;;0.80;;
13477;SDS011;12598;62.382;17.344;2024-01-06T01:20:51;1.20;;;1.10;;
13477;SDS011;12598;62.382;17.344;2024-01-06T01:21:53;1.17;;;1.00;;
13477;SDS011;12598;62.382;17.344;2024-01-06T01:22:57;1.08;;;0.90;;
13477;SDS011;12598;62.382;17.344;2024-01-06T01:23:58;1.10;;;1.00;;
13477;SDS011;12598;62.382;17.344;2024-01-06T01:25:00;1.20;;;1.10;;
13477;SDS011;12598;62.382;17.344;2024-01-06T01:26:06;1.15;;;1.02;;
13477;SDS011;12598;62.382;17.344;2024-01-06T01:27:08;1.33;;;1.10;;
13477;SDS011;12598;62.382;17.344;2024-01-06T01:28:10;1.90;;;1.30;;
13477;SDS011;12598;62.382;17.344;2024-01-06T01:29:12;1.25;;;1.15;;
13477;SDS011;12598;62.382;17.344;2024-01-06T01:30:14;1.10;;;1.00;;
13477;SDS011;12598;62.382;17.344;2024-01-06T01:31:16;1.27;;;1.08;;
13477;SDS011;12598;62.382;17.344;2024-01-06T01:32:18;1.10;;;1.00;;
13477;SDS011;12598;62.382;17.344;2024-01-06T01:33:20;1.20;;;1.10;;
13477;SDS011;12598;62.382;17.344;2024-01-06T01:34:22;1.30;;;1.20;;
13477;SDS011;12598;62.382;17.344;2024-01-06T01:35:24;1.10;;;1.00;;
13477;SDS011;12598;62.382;17.344;2024-01-06T01:36:26;0.80;;;0.80;;
13477;SDS011;12598;62.382;17.344;2024-01-06T01:37:28;1.10;;;1.00;;
13477;SDS011;12598;62.382;17.344;2024-01-06T01:38:30;0.88;;;0.80;;
13477;SDS011;12598;62.382;17.344;2024-01-06T01:39:32;1.30;;;1.20;;
13477;SDS011;12598;62.382;17.344;2024-01-06T01:40:34;1.40;;;0.80;;
13477;SDS011;12598;62.382;17.344;2024-01-06T01:41:35;0.80;;;0.80;;
13477;SDS011;12598;62.382;17.344;2024-01-06T01:42:37;1.20;;;1.10;;
13477;SDS011;12598;62.382;17.344;2024-01-06T01:43:39;1.30;;;0.90;;
13477;SDS011;12598;62.382;17.344;2024-01-06T01:44:41;0.82;;;0.80;;
13477;SDS011;12598;62.382;17.344;2024-01-06T01:45:43;0.93;;;0.82;;
13477;SDS011;12598;62.382;17.344;2024-01-06T01:46:45;1.10;;;1.00;;
13477;SDS011;12598;62.382;17.344;2024-01-06T01:47:47;0.80;;;0.80;;
13477;SDS011;12598;62.382;17.344;2024-01-06T01:48:49;1.17;;;0.90;;
13477;SDS011;12598;62.382;17.344;2024-01-06T01:49:52;0.93;;;0.90;;
13477;SDS011;12598;62.382;17.344;2024-01-06T01:50:56;0.80;;;0.80;;
13477;SDS011;12598;62.382;17.344;2024-01-06T01:51:58;1.25;;;1.10;;
13477;SDS011;12598;62.382;17.344;2024-01-06T01:53:00;0.90;;;0.82;;
13477;SDS011;12598;62.382;17.344;2024-01-06T01:54:03;1.08;;;0.80;;
13477;SDS011;12598;62.382;17.344;2024-01-06T01:55:06;0.93;;;0.85;;
13477;SDS011;12598;62.382;17.344;2024-01-06T01:56:08;1.15;;;0.90;;
13477;SDS011;12598;62.382;17.344;2024-01-06T01:57:11;1.08;;;0.98;;
13477;SDS011;12598;62.382;17.344;2024-01-06T01:58:14;1.27;;;0.90;;
13477;SDS011;12598;62.382;17.344;2024-01-06T01:59:18;1.10;;;0.80;;
13477;SDS011;12598;62.382;17.344;2024-01-06T02:00:21;1.15;;;1.05;;
13477;SDS011;12598;62.382;17.344;2024-01-06T02:01:26;1.20;;;0.93;;
13477;SDS011;12598;62.382;17.344;2024-01-06T02:02:28;1.05;;;0.68;;
13477;SDS011;12598;62.382;17.344;2024-01-06T02:03:30;1.00;;;0.90;;
13477;SDS011;12598;62.382;17.344;2024-01-06T02:04:32;1.15;;;1.00;;
13477;SDS011;12598;62.382;17.344;2024-01-06T02:05:34;1.05;;;0.95;;
13477;SDS011;12598;62.382;17.344;2024-01-06T02:06:36;1.33;;;0.98;;
13477;SDS011;12598;62.382;17.344;2024-01-06T02:07:38;1.15;;;0.90;;
13477;SDS011;12598;62.382;17.344;2024-01-06T02:08:40;1.10;;;1.00;;
13477;SDS011;12598;62.382;17.344;2024-01-06T02:09:42;1.08;;;0.98;;
13477;SDS011;12598;62.382;17.344;2024-01-06T02:10:44;1.33;;;0.90;;
13477;SDS011;12598;62.382;17.344;2024-01-06T02:11:46;1.35;;;1.00;;
13477;SDS011;12598;62.382;17.344;2024-01-06T02:12:48;0.68;;;0.68;;
13477;SDS011;12598;62.382;17.344;2024-01-06T02:13:50;0.82;;;0.82;;
13477;SDS011;12598;62.382;17.344;2024-01-06T02:14:52;0.98;;;0.88;;
13477;SDS011;12598;62.382;17.344;2024-01-06T02:15:55;1.08;;;0.90;;
13477;SDS011;12598;62.382;17.344;2024-01-06T02:16:57;0.80;;;0.80;;
13477;SDS011;12598;62.382;17.344;2024-01-06T02:17:59;0.90;;;0.70;;
13477;SDS011;12598;62.382;17.344;2024-01-06T02:19:01;1.10;;;1.00;;
13477;SDS011;12598;62.382;17.344;2024-01-06T02:20:04;0.80;;;0.80;;
13477;SDS011;12598;62.382;17.344;2024-01-06T02:21:08;0.85;;;0.80;;
13477;SDS011;12598;62.382;17.344;2024-01-06T02:22:11;0.93;;;0.90;;
13477;SDS011;12598;62.382;17.344;2024-01-06T02:23:13;0.98;;;0.90;;
13477;SDS011;12598;62.382;17.344;2024-01-06T02:24:14;1.00;;;0.90;;
13477;SDS011;12598;62.382;17.344;2024-01-06T02:25:16;0.88;;;0.75;;
13477;SDS011;12598;62.382;17.344;2024-01-06T02:26:19;1.13;;;1.02;;
13477;SDS011;12598;62.382;17.344;2024-01-06T02:27:21;0.77;;;0.73;;
13477;SDS011;12598;62.382;17.344;2024-01-06T02:28:23;1.00;;;0.90;;
13477;SDS011;12598;62.382;17.344;2024-01-06T02:29:25;0.80;;;0.70;;
13477;SDS011;12598;62.382;17.344;2024-01-06T02:30:27;1.10;;;0.82;;
13477;SDS011;12598;62.382;17.344;2024-01-06T02:31:28;0.70;;;0.68;;
13477;SDS011;12598;62.382;17.344;2024-01-06T02:32:30;1.00;;;0.80;;
13477;SDS011;12598;62.382;17.344;2024-01-06T02:33:32;0.90;;;0.73;;
13477;SDS011;12598;62.382;17.344;2024-01-06T02:34:34;0.95;;;0.80;;
13477;SDS011;12598;62.382;17.344;2024-01-06T02:35:39;1.00;;;0.80;;
13477;SDS011;12598;62.382;17.344;2024-01-06T02:36:41;1.45;;;1.00;;
13477;SDS011;12598;62.382;17.344;2024-01-06T02:37:43;0.90;;;0.80;;
13477;SDS011;12598;62.382;17.344;2024-01-06T02:38:45;1.50;;;0.88;;
13477;SDS011;12598;62.382;17.344;2024-01-06T02:39:47;0.70;;;0.68;;
13477;SDS011;12598;62.382;17.344;2024-01-06T02:40:48;0.70;;;0.70;;
13477;SDS011;12598;62.382;17.344;2024-01-06T02:41:50;0.80;;;0.77;;
13477;SDS011;12598;62.382;17.344;2024-01-06T02:42:52;1.60;;;0.90;;
13477;SDS011;12598;62.382;17.344;2024-01-06T02:43:54;1.10;;;1.00;;
13477;SDS011;12598;62.382;17.344;2024-01-06T02:44:57;1.00;;;0.80;;
13477;SDS011;12598;62.382;17.344;2024-01-06T02:45:59;0.95;;;0.90;;
13477;SDS011;12598;62.382;17.344;2024-01-06T02:47:01;1.20;;;1.08;;
13477;SDS011;12598;62.382;17.344;2024-01-06T02:48:03;1.30;;;1.00;;
13477;SDS011;12598;62.382;17.344;2024-01-06T02:49:05;0.88;;;0.88;;
13477;SDS011;12598;62.382;17.344;2024-01-06T02:50:07;1.15;;;1.05;;
13477;SDS011;12598;62.382;17.344;2024-01-06T02:51:10;1.23;;;1.00;;
13477;SDS011;12598;62.382;17.344;2024-01-06T02:52:14;0.95;;;0.80;;
13477;SDS011;12598;62.382;17.344;2024-01-06T02:53:16;1.02;;;0.82;;
13477;SDS011;12598;62.382;17.344;2024-01-06T02:54:18;1.15;;;0.80;;
13477;SDS011;12598;62.382;17.344;2024-01-06T02:55:19;1.27;;;1.10;;
13477;SDS011;12598;62.382;17.344;2024-01-06T02:56:21;0.90;;;0.90;;
13477;SDS011;12598;62.382;17.344;2024-01-06T02:57:23;0.95;;;0.80;;
13477;SDS011;12598;62.382;17.344;2024-01-06T02:58:25;0.75;;;0.60;;
13477;SDS011;12598;62.382;17.344;2024-01-06T02:59:27;1.10;;;1.00;;
13477;SDS011;12598;62.382;17.344;2024-01-06T03:00:28;0.80;;;0.80;;
13477;SDS011;12598;62.382;17.344;2024-01-06T03:01:31;1.15;;;1.05;;
13477;SDS011;12598;62.382;17.344;2024-01-06T03:02:33;1.05;;;0.95;;
13477;SDS011;12598;62.382;17.344;2024-01-06T03:03:37;1.10;;;0.90;;
13477;SDS011;12598;62.382;17.344;2024-01-06T03:04:39;0.77;;;0.77;;
13477;SDS011;12598;62.382;17.344;2024-01-06T03:05:41;0.98;;;0.88;;
13477;SDS011;12598;62.382;17.344;2024-01-06T03:06:43;1.50;;;0.80;;
13477;SDS011;12598;62.382;17.344;2024-01-06T03:07:45;1.17;;;1.08;;
13477;SDS011;12598;62.382;17.344;2024-01-06T03:08:46;1.17;;;0.95;;
13477;SDS011;12598;62.382;17.344;2024-01-06T03:09:48;0.80;;;0.68;;
13477;SDS011;12598;62.382;17.344;2024-01-06T03:10:50;0.80;;;0.70;;
13477;SDS011;12598;62.382;17.344;2024-01-06T03:11:52;0.80;;;0.80;;
13477;SDS011;12598;62.382;17.344;2024-01-06T03:12:54;0.80;;;0.80;;
13477;SDS011;12598;62.382;17.344;2024-01-06T03:13:56;1.15;;;0.90;;
13477;SDS011;12598;62.382;17.344;2024-01-06T03:14:58;1.20;;;1.10;;
13477;SDS011;12598;62.382;17.344;2024-01-06T03:16:03;1.15;;;1.10;;
13477;SDS011;12598;62.382;17.344;2024-01-06T03:17:06;1.33;;;0.82;;
13477;SDS011;12598;62.382;17.344;2024-01-06T03:18:08;0.65;;;0.65;;
13477;SDS011;12598;62.382;17.344;2024-01-06T03:19:10;0.98;;;0.90;;
13477;SDS011;12598;62.382;17.344;2024-01-06T03:20:12;0.85;;;0.70;;
13477;SDS011;12598;62.382;17.344;2024-01-06T03:21:18;1.13;;;1.02;;
13477;SDS011;12598;62.382;17.344;2024-01-06T03:22:21;0.88;;;0.80;;
13477;SDS011;12598;62.382;17.344;2024-01-06T03:23:23;1.88;;;1.00;;
13477;SDS011;12598;62.382;17.344;2024-01-06T03:24:25;0.70;;;0.63;;
13477;SDS011;12598;62.382;17.344;2024-01-06T03:25:28;1.15;;;0.90;;
13477;SDS011;12598;62.382;17.344;2024-01-06T03:26:30;0.80;;;0.80;;
13477;SDS011;12598;62.382;17.344;2024-01-06T03:27:31;1.15;;;1.05;;
13477;SDS011;12598;62.382;17.344;2024-01-06T03:28:33;0.88;;;0.88;;
13477;SDS011;12598;62.382;17.344;2024-01-06T03:29:35;1.15;;;0.93;;
13477;SDS011;12598;62.382;17.344;2024-01-06T03:30:37;1.10;;;0.90;;
13477;SDS011;12598;62.382;17.344;2024-01-06T03:31:42;0.90;;;0.90;;
13477;SDS011;12598;62.382;17.344;2024-01-06T03:32:45;1.05;;;0.95;;
13477;SDS011;12598;62.382;17.344;2024-01-06T03:33:47;0.90;;;0.90;;
13477;SDS011;12598;62.382;17.344;2024-01-06T03:34:49;1.10;;;1.00;;
13477;SDS011;12598;62.382;17.344;2024-01-06T03:35:51;1.25;;;0.93;;
13477;SDS011;12598;62.382;17.344;2024-01-06T03:36:53;1.13;;;1.02;;
13477;SDS011;12598;62.382;17.344;2024-01-06T03:37:55;0.93;;;0.88;;
13477;SDS011;12598;62.382;17.344;2024-01-06T03:38:57;1.13;;;0.98;;
13477;SDS011;12598;62.382;17.344;2024-01-06T03:39:58;1.02;;;0.93;;
13477;SDS011;12598;62.382;17.344;2024-01-06T03:41:00;0.70;;;0.70;;
13477;SDS011;12598;62.382;17.344;2024-01-06T03:42:02;0.90;;;0.90;;
13477;SDS011;12598;62.382;17.344;2024-01-06T03:43:04;1.10;;;1.00;;
13477;SDS011;12598;62.382;17.344;2024-01-06T03:44:06;1.02;;;0.93;;
13477;SDS011;12598;62.382;17.344;2024-01-06T03:45:08;1.02;;;0.80;;
13477;SDS011;12598;62.382;17.344;2024-01-06T03:46:10;1.48;;;0.98;;
13477;SDS011;12598;62.382;17.344;2024-01-06T03:47:12;0.77;;;0.70;;
13477;SDS011;12598;62.382;17.344;2024-01-06T03:48:14;1.23;;;1.00;;
13477;SDS011;12598;62.382;17.344;2024-01-06T03:49:16;0.98;;;0.80;;
13477;SDS011;12598;62.382;17.344;2024-01-06T03:50:20;1.67;;;0.82;;
13477;SDS011;12598;62.382;17.344;2024-01-06T03:51:21;1.05;;;0.95;;
13477;SDS011;12598;62.382;17.344;2024-01-06T03:52:23;1.13;;;1.02;;
13477;SDS011;12598;62.382;17.344;2024-01-06T03:53:25;1.20;;;0.90;;
13477;SDS011;12598;62.382;17.344;2024-01-06T03:54:27;1.10;;;0.93;;
13477;SDS011;12598;62.382;17.344;2024-01-06T03:55:29;0.80;;;0.80;;
13477;SDS011;12598;62.382;17.344;2024-01-06T03:56:31;0.80;;;0.80;;
13477;SDS011;12598;62.382;17.344;2024-01-06T03:57:33;1.08;;;0.98;;
13477;SDS011;12598;62.382;17.344;2024-01-06T03:58:35;0.98;;;0.80;;
13477;SDS011;12598;62.382;17.344;2024-01-06T03:59:37;1.33;;;0.93;;
13477;SDS011;12598;62.382;17.344;2024-01-06T04:00:38;1.10;;;0.68;;
13477;SDS011;12598;62.382;17.344;2024-01-06T04:01:40;1.10;;;1.00;;
13477;SDS011;12598;62.382;17.344;2024-01-06T04:02:42;0.85;;;0.85;;
13477;SDS011;12598;62.382;17.344;2024-01-06T04:03:44;0.60;;;0.57;;
13477;SDS011;12598;62.382;17.344;2024-01-06T04:04:46;1.00;;;1.00;;
13477;SDS011;12598;62.382;17.344;2024-01-06T04:05:48;1.10;;;1.00;;
13477;SDS011;12598;62.382;17.344;2024-01-06T04:06:50;0.90;;;0.75;;
13477;SDS011;12598;62.382;17.344;2024-01-06T04:07:52;1.10;;;1.00;;
13477;SDS011;12598;62.382;17.344;2024-01-06T04:08:54;0.82;;;0.63;;
13477;SDS011;12598;62.382;17.344;2024-01-06T04:09:56;1.02;;;0.90;;
13477;SDS011;12598;62.382;17.344;2024-01-06T04:10:58;0.70;;;0.70;;
13477;SDS011;12598;62.382;17.344;2024-01-06T04:11:59;1.08;;;0.82;;
13477;SDS011;12598;62.382;17.344;2024-01-06T04:13:03;0.73;;;0.73;;
13477;SDS011;12598;62.382;17.344;2024-01-06T04:14:04;1.48;;;1.20;;
13477;SDS011;12598;62.382;17.344;2024-01-06T04:15:06;1.00;;;0.90;;
13477;SDS011;12598;62.382;17.344;2024-01-06T04:16:09;0.80;;;0.80;;
13477;SDS011;12598;62.382;17.344;2024-01-06T04:17:10;1.30;;;1.10;;
13477;SDS011;12598;62.382;17.344;2024-01-06T04:18:12;0.70;;;0.60;;
13477;SDS011;12598;62.382;17.344;2024-01-06T04:19:14;0.90;;;0.90;;
13477;SDS011;12598;62.382;17.344;2024-01-06T04:20:16;0.82;;;0.77;;
13477;SDS011;12598;62.382;17.344;2024-01-06T04:21:18;0.90;;;0.80;;
13477;SDS011;12598;62.382;17.344;2024-01-06T04:22:20;1.10;;;0.93;;
13477;SDS011;12598;62.382;17.344;2024-01-06T04:23:22;1.20;;;1.10;;
13477;SDS011;12598;62.382;17.344;2024-01-06T04:24:26;0.70;;;0.70;;
13477;SDS011;12598;62.382;17.344;2024-01-06T04:25:28;0.80;;;0.80;;
13477;SDS011;12598;62.382;17.344;2024-01-06T04:26:30;0.80;;;0.77;;
13477;SDS011;12598;62.382;17.344;2024-01-06T04:27:32;1.08;;;0.88;;
13477;SDS011;12598;62.382;17.344;2024-01-06T04:28:35;1.02;;;0.93;;
13477;SDS011;12598;62.382;17.344;2024-01-06T04:29:37;0.77;;;0.77;;
13477;SDS011;12598;62.382;17.344;2024-01-06T04:30:40;1.00;;;0.90;;
13477;SDS011;12598;62.382;17.344;2024-01-06T04:31:42;0.80;;;0.70;;
13477;SDS011;12598;62.382;17.344;2024-01-06T04:32:44;1.08;;;0.90;;
13477;SDS011;12598;62.382;17.344;2024-01-06T04:33:46;0.80;;;0.80;;
13477;SDS011;12598;62.382;17.344;2024-01-06T04:34:48;0.70;;;0.70;;
13477;SDS011;12598;62.382;17.344;2024-01-06T04:35:50;1.02;;;0.80;;
13477;SDS011;12598;62.382;17.344;2024-01-06T04:36:52;0.90;;;0.90;;
13477;SDS011;12598;62.382;17.344;2024-01-06T04:37:54;0.70;;;0.70;;
13477;SDS011;12598;62.382;17.344;2024-01-06T04:38:56;1.08;;;0.98;;
13477;SDS011;12598;62.382;17.344;2024-01-06T04:39:57;0.95;;;0.85;;
13477;SDS011;12598;62.382;17.344;2024-01-06T04:40:59;0.95;;;0.80;;
13477;SDS011;12598;62.382;17.344;2024-01-06T04:42:01;1.23;;;1.10;;
13477;SDS011;12598;62.382;17.344;2024-01-06T04:43:03;1.05;;;0.90;;
13477;SDS011;12598;62.382;17.344;2024-01-06T04:44:05;1.00;;;0.90;;
13477;SDS011;12598;62.382;17.344;2024-01-06T04:45:07;1.02;;;0.88;;
13477;SDS011;12598;62.382;17.344;2024-01-06T04:46:10;0.98;;;0.88;;
13477;SDS011;12598;62.382;17.344;2024-01-06T04:47:11;1.00;;;0.90;;
13477;SDS011;12598;62.382;17.344;2024-01-06T04:48:13;0.85;;;0.70;;
13477;SDS011;12598;62.382;17.344;2024-01-06T04:49:15;0.90;;;0.70;;
13477;SDS011;12598;62.382;17.344;2024-01-06T04:50:17;1.08;;;0.70;;
13477;SDS011;12598;62.382;17.344;2024-01-06T04:51:19;0.82;;;0.70;;
13477;SDS011;12598;62.382;17.344;2024-01-06T04:52:21;0.57;;;0.57;;
13477;SDS011;12598;62.382;17.344;2024-01-06T04:53:23;0.82;;;0.80;;
13477;SDS011;12598;62.382;17.344;2024-01-06T04:54:25;0.80;;;0.80;;
13477;SDS011;12598;62.382;17.344;2024-01-06T04:55:27;0.95;;;0.85;;
13477;SDS011;12598;62.382;17.344;2024-01-06T04:56:29;0.63;;;0.63;;
13477;SDS011;12598;62.382;17.344;2024-01-06T04:57:34;1.23;;;0.90;;
13477;SDS011;12598;62.382;17.344;2024-01-06T04:58:36;1.00;;;1.00;;
13477;SDS011;12598;62.382;17.344;2024-01-06T04:59:37;1.25;;;0.90;;
13477;SDS011;12598;62.382;17.344;2024-01-06T05:00:39;0.73;;;0.52;;
13477;SDS011;12598;62.382;17.344;2024-01-06T05:01:41;1.70;;;0.80;;
13477;SDS011;12598;62.382;17.344;2024-01-06T05:02:43;1.02;;;1.00;;
13477;SDS011;12598;62.382;17.344;2024-01-06T05:03:45;0.90;;;0.90;;
13477;SDS011;12598;62.382;17.344;2024-01-06T05:04:47;1.00;;;0.90;;
13477;SDS011;12598;62.382;17.344;2024-01-06T05:05:49;1.02;;;0.80;;
13477;SDS011;12598;62.382;17.344;2024-01-06T05:06:51;0.90;;;0.70;;
13477;SDS011;12598;62.382;17.344;2024-01-06T05:07:53;0.98;;;0.90;;
13477;SDS011;12598;62.382;17.344;2024-01-06T05:08:55;1.10;;;1.00;;
13477;SDS011;12598;62.382;17.344;2024-01-06T05:09:57;0.98;;;0.90;;
13477;SDS011;12598;62.382;17.344;2024-01-06T05:10:59;0.85;;;0.82;;
13477;SDS011;12598;62.382;17.344;2024-01-06T05:12:01;0.95;;;0.90;;
13477;SDS011;12598;62.382;17.344;2024-01-06T05:13:03;0.70;;;0.70;;
13477;SDS011;12598;62.382;17.344;2024-01-06T05:14:05;0.88;;;0.88;;
13477;SDS011;12598;62.382;17.344;2024-01-06T05:15:08;0.80;;;0.70;;
13477;SDS011;12598;62.382;17.344;2024-01-06T05:16:10;1.15;;;1.05;;
13477;SDS011;12598;62.382;17.344;2024-01-06T05:17:12;0.80;;;0.70;;
13477;SDS011;12598;62.382;17.344;2024-01-06T05:18:14;1.02;;;0.90;;
13477;SDS011;12598;62.382;17.344;2024-01-06T05:19:16;0.90;;;0.80;;
13477;SDS011;12598;62.382;17.344;2024-01-06T05:20:23;1.08;;;0.70;;
13477;SDS011;12598;62.382;17.344;2024-01-06T05:21:24;0.90;;;0.73;;
13477;SDS011;12598;62.382;17.344;2024-01-06T05:22:27;0.70;;;0.70;;
13477;SDS011;12598;62.382;17.344;2024-01-06T05:23:29;1.20;;;0.93;;
13477;SDS011;12598;62.382;17.344;2024-01-06T05:24:31;0.60;;;0.60;;
13477;SDS011;12598;62.382;17.344;2024-01-06T05:25:32;1.13;;;0.82;;
13477;SDS011;12598;62.382;17.344;2024-01-06T05:26:34;1.15;;;0.98;;
13477;SDS011;12598;62.382;17.344;2024-01-06T05:27:36;0.82;;;0.82;;
13477;SDS011;12598;62.382;17.344;2024-01-06T05:28:38;0.70;;;0.70;;
13477;SDS011;12598;62.382;17.344;2024-01-06T05:29:40;0.70;;;0.70;;
13477;SDS011;12598;62.382;17.344;2024-01-06T05:30:41;0.98;;;0.88;;
13477;SDS011;12598;62.382;17.344;2024-01-06T05:31:43;0.75;;;0.75;;
13477;SDS011;12598;62.382;17.344;2024-01-06T05:32:47;0.77;;;0.73;;
13477;SDS011;12598;62.382;17.344;2024-01-06T05:33:49;0.60;;;0.60;;
13477;SDS011;12598;62.382;17.344;2024-01-06T05:34:51;0.77;;;0.77;;
13477;SDS011;12598;62.382;17.344;2024-01-06T05:35:53;0.70;;;0.60;;
13477;SDS011;12598;62.382;17.344;2024-01-06T05:36:56;0.80;;;0.80;;
13477;SDS011;12598;62.382;17.344;2024-01-06T05:37:57;1.08;;;0.85;;
13477;SDS011;12598;62.382;17.344;2024-01-06T05:38:59;0.60;;;0.50;;
13477;SDS011;12598;62.382;17.344;2024-01-06T05:40:01;0.57;;;0.57;;
13477;SDS011;12598;62.382;17.344;2024-01-06T05:41:06;1.17;;;0.77;;
13477;SDS011;12598;62.382;17.344;2024-01-06T05:42:09;0.70;;;0.60;;
13477;SDS011;12598;62.382;17.344;2024-01-06T05:43:12;0.75;;;0.68;;
13477;SDS011;12598;62.382;17.344;2024-01-06T05:44:14;1.02;;;0.60;;
13477;SDS011;12598;62.382;17.344;2024-01-06T05:45:16;0.73;;;0.70;;
13477;SDS011;12598;62.382;17.344;2024-01-06T05:46:24;0.80;;;0.70;;
13477;SDS011;12598;62.382;17.344;2024-01-06T05:47:26;0.88;;;0.70;;
13477;SDS011;12598;62.382;17.344;2024-01-06T05:48:28;0.50;;;0.50;;
13477;SDS011;12598;62.382;17.344;2024-01-06T05:49:30;0.65;;;0.55;;
13477;SDS011;12598;62.382;17.344;2024-01-06T05:50:32;0.70;;;0.70;;
13477;SDS011;12598;62.382;17.344;2024-01-06T05:51:34;0.80;;;0.80;;
13477;SDS011;12598;62.382;17.344;2024-01-06T05:52:35;0.80;;;0.80;;
13477;SDS011;12598;62.382;17.344;2024-01-06T05:53:37;0.73;;;0.60;;
13477;SDS011;12598;62.382;17.344;2024-01-06T05:54:42;0.50;;;0.50;;
13477;SDS011;12598;62.382;17.344;2024-01-06T05:55:44;0.63;;;0.52;;
13477;SDS011;12598;62.382;17.344;2024-01-06T05:56:46;0.70;;;0.70;;
13477;SDS011;12598;62.382;17.344;2024-01-06T05:57:48;0.75;;;0.75;;
13477;SDS011;12598;62.382;17.344;2024-01-06T05:58:50;0.70;;;0.70;;
13477;SDS011;12598;62.382;17.344;2024-01-06T05:59:52;0.70;;;0.70;;
13477;SDS011;12598;62.382;17.344;2024-01-06T06:00:53;0.98;;;0.77;;
13477;SDS011;12598;62.382;17.344;2024-01-06T06:01:55;0.80;;;0.80;;
13477;SDS011;12598;62.382;17.344;2024-01-06T06:02:57;0.70;;;0.65;;
13477;SDS011;12598;62.382;17.344;2024-01-06T06:03:59;0.80;;;0.80;;
13477;SDS011;12598;62.382;17.344;2024-01-06T06:05:01;0.70;;;0.70;;
13477;SDS011;12598;62.382;17.344;2024-01-06T06:06:03;0.65;;;0.60;;
13477;SDS011;12598;62.382;17.344;2024-01-06T06:07:05;0.60;;;0.50;;
13477;SDS011;12598;62.382;17.344;2024-01-06T06:08:07;0.68;;;0.60;;